createdAt,value
2022-11-16T00:01:40.945Z,11.80
2022-11-16T00:04:11.876Z,11.80
2022-11-16T00:06:39.920Z,11.70
2022-11-16T00:09:25.369Z,11.60
2022-11-16T00:11:55.691Z,11.50
2022-11-16T00:14:25.206Z,11.60
2022-11-16T00:16:53.245Z,11.50
2022-11-16T00:19:21.230Z,11.50
2022-11-16T00:21:49.237Z,11.60
2022-11-16T00:24:19.960Z,11.70
2022-11-16T00:26:48.534Z,11.70
2022-11-16T00:29:17.663Z,11.70
2022-11-16T00:31:46.304Z,11.70
2022-11-16T00:34:14.464Z,11.70
2022-11-16T00:36:42.219Z,11.70
2022-11-16T00:39:12.579Z,11.80
2022-11-16T00:41:42.042Z,11.90
2022-11-16T00:44:10.202Z,11.90
2022-11-16T00:46:38.317Z,11.90
2022-11-16T00:49:07.336Z,12.00
2022-11-16T00:51:36.844Z,12.00
2022-11-16T00:54:05.844Z,12.00
2022-11-16T00:56:36.627Z,12.00
2022-11-16T00:59:07.464Z,12.00
2022-11-16T01:01:35.618Z,12.00
2022-11-16T01:04:03.529Z,12.00
2022-11-16T01:06:31.254Z,12.10
2022-11-16T01:09:01.615Z,12.10
2022-11-16T01:11:43.324Z,12.10
2022-11-16T01:14:13.062Z,12.10
2022-11-16T01:16:43.223Z,12.10
2022-11-16T01:19:11.272Z,12.10
2022-11-16T01:21:38.952Z,12.10
2022-11-16T01:24:07.195Z,12.00
2022-11-16T01:26:34.943Z,12.10
2022-11-16T01:29:02.894Z,12.10
2022-11-16T01:31:36.440Z,12.10
2022-11-16T01:34:05.460Z,12.10
2022-11-16T01:36:33.214Z,12.10
2022-11-16T01:39:03.177Z,12.10
2022-11-16T01:41:38.092Z,12.10
2022-11-16T01:44:08.224Z,12.10
2022-11-16T01:46:44.264Z,12.10
2022-11-16T01:49:17.572Z,12.10
2022-11-16T01:51:48.944Z,12.10
2022-11-16T01:54:17.052Z,12.10
2022-11-16T01:57:03.791Z,12.10
2022-11-16T01:59:37.369Z,12.20
2022-11-16T02:02:08.017Z,12.20
2022-11-16T02:04:35.980Z,12.20
2022-11-16T02:07:14.861Z,12.10
2022-11-16T02:09:58.219Z,12.00
2022-11-16T02:12:52.555Z,11.90
2022-11-16T02:15:29.119Z,12.00
2022-11-16T02:18:21.892Z,12.00
2022-11-16T02:21:02.059Z,12.00
2022-11-16T02:23:46.725Z,12.10
2022-11-16T02:26:31.435Z,12.00
2022-11-16T02:29:17.241Z,11.90
2022-11-16T02:31:51.468Z,11.90
2022-11-16T02:34:21.852Z,11.80
2022-11-16T02:36:53.544Z,11.80
2022-11-16T02:39:25.888Z,11.80
2022-11-16T02:41:55.351Z,11.80
2022-11-16T02:44:29.079Z,11.80
2022-11-16T02:47:00.154Z,11.80
2022-11-16T02:49:30.458Z,11.70
2022-11-16T02:52:00.418Z,11.60
2022-11-16T02:54:28.849Z,11.60
2022-11-16T02:57:26.004Z,11.50
2022-11-16T02:59:59.053Z,11.50
2022-11-16T03:02:33.662Z,11.60
2022-11-16T03:05:08.902Z,11.60
2022-11-16T03:07:47.791Z,11.70
2022-11-16T03:10:38.559Z,11.70
2022-11-16T03:13:10.186Z,11.80
2022-11-16T03:15:42.364Z,11.90
2022-11-16T03:18:16.918Z,11.90
2022-11-16T03:20:47.250Z,11.90
2022-11-16T03:23:15.598Z,11.90
2022-11-16T03:25:51.206Z,11.90
2022-11-16T03:28:27.352Z,11.90
2022-11-16T03:31:02.759Z,11.90
2022-11-16T03:33:35.379Z,11.90
2022-11-16T03:36:08.910Z,11.90
2022-11-16T03:38:40.474Z,11.90
2022-11-16T03:41:10.882Z,12.00
2022-11-16T03:43:41.234Z,12.00
2022-11-16T03:46:10.939Z,12.00
2022-11-16T03:48:41.306Z,12.00
2022-11-16T03:51:15.270Z,11.90
2022-11-16T03:53:43.634Z,11.90
2022-11-16T03:56:13.249Z,11.80
2022-11-16T03:58:40.985Z,11.80
2022-11-16T04:01:10.155Z,11.80
2022-11-16T04:03:38.258Z,11.90
2022-11-16T04:06:20.518Z,11.90
2022-11-16T04:09:02.256Z,11.90
2022-11-16T04:11:44.758Z,11.90
2022-11-16T04:14:29.634Z,11.90
2022-11-16T04:17:12.782Z,11.90
2022-11-16T04:19:58.102Z,11.90
2022-11-16T04:22:46.610Z,11.90
2022-11-16T04:25:19.118Z,11.90
2022-11-16T04:28:00.999Z,11.90
2022-11-16T04:30:49.255Z,11.90
2022-11-16T04:33:32.486Z,11.80
2022-11-16T04:36:20.373Z,11.80
2022-11-16T04:38:48.467Z,11.80
2022-11-16T04:41:30.968Z,11.80
2022-11-16T04:43:59.355Z,11.80
2022-11-16T04:46:41.212Z,11.80
2022-11-16T04:49:10.691Z,11.70
2022-11-16T04:51:39.579Z,11.80
2022-11-16T04:54:07.358Z,11.80
2022-11-16T04:56:35.140Z,11.80
2022-11-16T04:59:03.282Z,11.80
2022-11-16T05:01:45.105Z,11.80
2022-11-16T05:04:14.947Z,11.90
2022-11-16T05:06:44.121Z,11.80
2022-11-16T05:09:12.008Z,11.80
2022-11-16T05:11:40.268Z,11.90
2022-11-16T05:14:09.999Z,11.90
2022-11-16T05:16:40.305Z,11.90
2022-11-16T05:19:23.177Z,11.90
2022-11-16T05:21:52.412Z,11.90
2022-11-16T05:24:34.440Z,11.90
2022-11-16T05:27:05.311Z,11.90
2022-11-16T05:29:33.635Z,11.80
2022-11-16T05:32:02.956Z,11.80
2022-11-16T05:34:30.719Z,11.70
2022-11-16T05:37:00.436Z,11.70
2022-11-16T05:39:28.687Z,11.80
2022-11-16T05:41:57.532Z,11.80
2022-11-16T05:44:26.480Z,11.90
2022-11-16T05:46:56.028Z,11.90
2022-11-16T05:49:24.357Z,12.00
2022-11-16T05:51:52.319Z,12.00
2022-11-16T05:54:24.794Z,12.00
2022-11-16T05:56:53.937Z,12.00
2022-11-16T05:59:24.577Z,11.90
2022-11-16T06:01:55.545Z,11.90
2022-11-16T06:04:29.077Z,11.90
2022-11-16T06:06:56.825Z,12.00
2022-11-16T06:09:31.933Z,12.00
2022-11-16T06:12:06.887Z,11.90
2022-11-16T06:14:34.744Z,11.90
2022-11-16T06:17:02.513Z,11.80
2022-11-16T06:19:32.517Z,11.90
2022-11-16T06:22:00.747Z,11.90
2022-11-16T06:24:31.840Z,11.90
2022-11-16T06:26:59.991Z,11.90
2022-11-16T06:29:28.749Z,11.80
2022-11-16T06:31:56.485Z,11.80
2022-11-16T06:34:24.612Z,11.90
2022-11-16T06:36:52.476Z,11.90
2022-11-16T06:39:21.576Z,11.90
2022-11-16T06:41:50.781Z,11.80
2022-11-16T06:44:18.904Z,11.80
2022-11-16T06:46:55.001Z,11.70
2022-11-16T06:49:23.894Z,11.80
2022-11-16T06:51:53.816Z,11.80
2022-11-16T06:54:21.592Z,11.80
2022-11-16T06:56:50.590Z,11.80
2022-11-16T06:59:18.464Z,11.90
2022-11-16T07:01:47.256Z,11.90
2022-11-16T07:04:15.872Z,11.90
2022-11-16T07:06:49.920Z,11.90
2022-11-16T07:09:18.935Z,12.00
2022-11-16T07:11:47.331Z,12.00
2022-11-16T07:14:18.284Z,12.00
2022-11-16T07:16:46.089Z,12.10
2022-11-16T07:19:13.953Z,12.10
2022-11-16T07:21:43.233Z,12.20
2022-11-16T07:24:16.213Z,12.10
2022-11-16T07:26:44.021Z,12.20
2022-11-16T07:29:18.269Z,12.30
2022-11-16T07:32:05.513Z,12.30
2022-11-16T07:34:53.189Z,12.30
2022-11-16T07:37:21.829Z,12.30
2022-11-16T07:39:49.560Z,12.40
2022-11-16T07:42:17.339Z,12.50
2022-11-16T07:44:54.528Z,12.50
2022-11-16T07:47:22.340Z,12.50
2022-11-16T07:49:50.848Z,12.50
2022-11-16T07:52:21.968Z,12.50
2022-11-16T07:54:57.080Z,12.50
2022-11-16T07:57:27.457Z,12.50
2022-11-16T07:59:58.605Z,12.50
2022-11-16T08:02:28.214Z,12.50
2022-11-16T08:04:56.656Z,12.50
2022-11-16T08:07:28.785Z,12.50
2022-11-16T08:09:57.806Z,12.50
2022-11-16T08:12:25.752Z,12.60
2022-11-16T08:14:54.672Z,12.70
2022-11-16T08:17:23.805Z,12.80
2022-11-16T08:19:53.496Z,13.30
2022-11-16T08:22:22.377Z,14.30
2022-11-16T08:24:50.128Z,15.60
2022-11-16T08:27:18.614Z,16.90
2022-11-16T08:29:52.693Z,18.20
2022-11-16T08:32:20.962Z,18.80
2022-11-16T08:34:50.610Z,18.30
2022-11-16T08:37:18.623Z,18.30
2022-11-16T08:39:49.497Z,17.80
2022-11-16T08:42:17.568Z,18.00
2022-11-16T08:44:48.428Z,18.10
2022-11-16T08:47:19.118Z,18.40
2022-11-16T08:49:53.679Z,18.70
2022-11-16T08:52:23.574Z,18.60
2022-11-16T08:54:54.087Z,17.00
2022-11-16T08:57:22.369Z,17.40
2022-11-16T08:59:57.458Z,17.30
2022-11-16T09:02:25.827Z,17.20
2022-11-16T09:04:58.564Z,17.50
2022-11-16T09:07:26.644Z,17.10
2022-11-16T09:09:54.567Z,17.10
2022-11-16T09:12:22.429Z,16.90
2022-11-16T09:14:50.947Z,16.60
2022-11-16T09:17:23.000Z,16.50
2022-11-16T09:19:52.482Z,16.10
2022-11-16T09:22:21.510Z,15.80
2022-11-16T09:24:50.489Z,15.60
2022-11-16T09:27:18.296Z,15.20
2022-11-16T09:29:47.167Z,15.00
2022-11-16T09:32:19.929Z,14.70
2022-11-16T09:34:47.655Z,14.70
2022-11-16T09:37:17.895Z,14.70
2022-11-16T09:39:47.055Z,14.80
2022-11-16T09:42:29.442Z,14.80
2022-11-16T09:45:04.434Z,14.60
2022-11-16T09:47:42.075Z,14.70
2022-11-16T09:50:25.586Z,14.90
2022-11-16T09:53:13.122Z,14.80
2022-11-16T09:55:48.400Z,14.90
2022-11-16T09:58:20.906Z,14.90
2022-11-16T10:00:57.452Z,14.80
2022-11-16T10:03:33.002Z,14.70
2022-11-16T10:06:06.429Z,14.70
2022-11-16T10:08:44.069Z,14.80
2022-11-16T10:11:30.058Z,14.80
2022-11-16T10:14:08.040Z,14.90
2022-11-16T10:16:41.847Z,14.90
2022-11-16T10:19:23.139Z,14.80
2022-11-16T10:22:00.465Z,14.80
2022-11-16T10:24:39.890Z,14.70
2022-11-16T10:27:32.764Z,14.70
2022-11-16T10:30:10.016Z,14.60
2022-11-16T10:32:47.032Z,14.60
2022-11-16T10:35:20.430Z,14.60
2022-11-16T10:37:50.593Z,14.60
2022-11-16T10:40:24.282Z,14.70
2022-11-16T10:43:01.708Z,14.80
2022-11-16T10:45:36.096Z,14.80
2022-11-16T10:48:15.663Z,15.00
2022-11-16T10:50:47.644Z,15.00
2022-11-16T10:53:26.067Z,15.00
2022-11-16T10:56:10.486Z,15.10
2022-11-16T10:58:54.407Z,15.20
2022-11-16T11:01:33.324Z,15.20
2022-11-16T11:04:18.811Z,15.20
2022-11-16T11:06:48.086Z,15.20
2022-11-16T11:09:22.308Z,15.20
2022-11-16T11:12:13.384Z,15.20
2022-11-16T11:14:42.540Z,15.20
2022-11-16T11:17:14.055Z,15.30
2022-11-16T11:19:41.879Z,15.30
2022-11-16T11:22:15.092Z,15.20
2022-11-16T11:24:48.281Z,15.30
2022-11-16T11:27:23.888Z,15.20
2022-11-16T11:29:58.461Z,15.20
2022-11-16T11:32:31.992Z,15.10
2022-11-16T11:35:01.484Z,15.10
2022-11-16T11:37:33.831Z,15.10
2022-11-16T11:40:19.255Z,15.30
2022-11-16T11:42:54.536Z,15.30
2022-11-16T11:45:36.492Z,15.20
2022-11-16T11:48:13.587Z,15.30
2022-11-16T11:50:48.594Z,15.30
2022-11-16T11:53:28.254Z,15.20
2022-11-16T11:56:00.667Z,15.20
2022-11-16T11:58:31.871Z,15.30
2022-11-16T12:01:25.045Z,15.40
2022-11-16T12:04:23.043Z,15.50
2022-11-16T12:06:55.376Z,15.60
2022-11-16T12:09:35.935Z,15.70
2022-11-16T12:12:16.498Z,15.80
2022-11-16T12:15:01.776Z,15.70
2022-11-16T12:17:41.713Z,15.70
2022-11-16T12:20:22.601Z,15.70
2022-11-16T12:23:08.159Z,15.60
2022-11-16T12:25:43.015Z,15.50
2022-11-16T12:28:20.821Z,15.60
2022-11-16T12:31:01.076Z,15.60
2022-11-16T12:33:40.215Z,15.50
2022-11-16T12:36:30.160Z,15.40
2022-11-16T12:39:10.386Z,15.50
2022-11-16T12:42:01.456Z,15.50
2022-11-16T12:44:39.575Z,15.60
2022-11-16T12:47:22.597Z,15.60
2022-11-16T12:50:06.050Z,15.60
2022-11-16T12:52:51.604Z,15.70
2022-11-16T12:55:27.922Z,15.50
2022-11-16T12:58:11.323Z,15.40
2022-11-16T13:00:51.333Z,15.40
2022-11-16T13:03:24.919Z,15.40
2022-11-16T13:06:00.150Z,15.50
2022-11-16T13:08:38.906Z,15.60
2022-11-16T13:11:12.476Z,15.60
2022-11-16T13:13:42.003Z,15.50
2022-11-16T13:16:11.375Z,15.60
2022-11-16T13:18:42.645Z,15.60
2022-11-16T13:21:21.256Z,15.70
2022-11-16T13:24:01.835Z,15.70
2022-11-16T13:26:34.580Z,15.80
2022-11-16T13:29:13.018Z,15.80
2022-11-16T13:31:50.390Z,15.70
2022-11-16T13:34:24.579Z,15.70
2022-11-16T13:36:54.287Z,15.70
2022-11-16T13:39:42.973Z,15.60
2022-11-16T13:42:14.268Z,15.40
2022-11-16T13:44:41.983Z,15.30
2022-11-16T13:47:22.158Z,15.30
2022-11-16T13:49:53.170Z,15.20
2022-11-16T13:52:25.079Z,15.10
2022-11-16T13:55:13.298Z,15.10
2022-11-16T13:57:51.850Z,15.10
2022-11-16T14:00:23.971Z,15.10
2022-11-16T14:03:26.556Z,15.10
2022-11-16T14:05:55.595Z,15.10
2022-11-16T14:08:46.435Z,15.10
2022-11-16T14:11:31.934Z,14.90
2022-11-16T14:14:01.225Z,14.90
2022-11-16T14:16:48.547Z,14.80
2022-11-16T14:19:47.453Z,14.80
2022-11-16T14:22:32.136Z,14.80
2022-11-16T14:25:07.438Z,14.80
2022-11-16T14:27:41.389Z,14.80
2022-11-16T14:30:18.338Z,14.80
2022-11-16T14:32:48.685Z,14.80
2022-11-16T14:35:28.775Z,14.90
2022-11-16T14:38:02.171Z,14.90
2022-11-16T14:40:31.775Z,15.00
2022-11-16T14:43:19.966Z,14.90
2022-11-16T14:45:49.922Z,14.90
2022-11-16T14:48:19.843Z,14.90
2022-11-16T14:50:59.910Z,14.80
2022-11-16T14:53:30.263Z,14.70
2022-11-16T14:56:08.014Z,14.60
2022-11-16T14:58:36.999Z,14.50
2022-11-16T15:01:07.649Z,14.40
2022-11-16T15:03:39.679Z,14.30
2022-11-16T15:06:08.622Z,14.40
2022-11-16T15:08:44.533Z,14.40
2022-11-16T15:11:21.860Z,14.40
2022-11-16T15:13:50.442Z,14.40
2022-11-16T15:16:20.255Z,14.30
2022-11-16T15:19:03.238Z,14.20
2022-11-16T15:21:30.960Z,14.10
2022-11-16T15:24:23.888Z,14.00
2022-11-16T15:26:47.975Z,13.90
2022-11-16T15:29:18.645Z,13.80
2022-11-16T15:31:46.906Z,13.90
2022-11-16T15:34:17.180Z,13.90
2022-11-16T15:36:45.351Z,13.90
2022-11-16T15:39:18.543Z,13.90
2022-11-16T15:41:46.962Z,13.80
2022-11-16T15:44:18.529Z,13.70
2022-11-16T15:46:49.779Z,13.70
2022-11-16T15:49:29.124Z,13.70
2022-11-16T15:51:59.123Z,13.60
2022-11-16T15:54:29.897Z,13.60
2022-11-16T15:57:05.610Z,13.50
2022-11-16T15:59:38.586Z,13.50
2022-11-16T16:02:15.954Z,13.50
2022-11-16T16:04:44.962Z,13.50
2022-11-16T16:07:13.785Z,13.40
2022-11-16T16:09:43.238Z,13.40
2022-11-16T16:12:18.344Z,13.40
2022-11-16T16:14:50.163Z,13.40
2022-11-16T16:17:24.182Z,13.50
2022-11-16T16:19:56.279Z,13.40
2022-11-16T16:22:27.083Z,13.30
2022-11-16T16:24:56.262Z,13.30
2022-11-16T16:27:25.654Z,13.20
2022-11-16T16:29:55.009Z,13.10
2022-11-16T16:32:26.074Z,13.10
2022-11-16T16:34:54.498Z,13.00
2022-11-16T16:37:22.671Z,12.90
2022-11-16T16:39:50.435Z,12.80
2022-11-16T16:42:19.812Z,12.80
2022-11-16T16:44:48.523Z,12.80
2022-11-16T16:47:20.495Z,12.60
2022-11-16T16:49:48.268Z,12.50
2022-11-16T16:52:16.508Z,12.50
2022-11-16T16:54:44.659Z,12.50
2022-11-16T16:57:15.615Z,12.50
2022-11-16T16:59:47.935Z,12.40
2022-11-16T17:02:16.514Z,12.40
2022-11-16T17:04:46.551Z,12.40
2022-11-16T17:07:14.324Z,12.30
2022-11-16T17:09:42.314Z,12.20
2022-11-16T17:12:10.724Z,12.20
2022-11-16T17:14:38.430Z,12.20
2022-11-16T17:17:07.588Z,12.20
2022-11-16T17:19:35.377Z,12.10
2022-11-16T17:22:03.193Z,12.10
2022-11-16T17:24:31.788Z,12.00
2022-11-16T17:26:59.723Z,11.90
2022-11-16T17:29:27.452Z,12.00
2022-11-16T17:31:55.324Z,11.90
2022-11-16T17:34:24.390Z,11.80
2022-11-16T17:36:52.192Z,11.70
2022-11-16T17:39:20.056Z,11.60
2022-11-16T17:41:47.868Z,11.60
2022-11-16T17:44:21.653Z,11.50
2022-11-16T17:46:50.410Z,11.50
2022-11-16T17:49:18.144Z,11.40
2022-11-16T17:51:47.155Z,11.40
2022-11-16T17:54:14.861Z,11.30
2022-11-16T17:56:44.051Z,11.20
2022-11-16T17:59:11.840Z,11.20
2022-11-16T18:01:39.643Z,11.20
2022-11-16T18:04:07.436Z,11.20
2022-11-16T18:06:35.555Z,11.30
2022-11-16T18:09:04.674Z,11.40
2022-11-16T18:11:32.456Z,11.50
2022-11-16T18:14:01.544Z,11.60
2022-11-16T18:16:32.227Z,11.60
2022-11-16T18:19:01.741Z,11.60
2022-11-16T18:21:29.921Z,11.40
2022-11-16T18:24:00.251Z,11.30
2022-11-16T18:26:29.645Z,11.30
2022-11-16T18:28:57.346Z,11.30
2022-11-16T18:31:26.076Z,11.30
2022-11-16T18:33:53.897Z,11.30
2022-11-16T18:36:22.693Z,11.20
2022-11-16T18:38:50.720Z,11.20
2022-11-16T18:41:20.858Z,11.10
2022-11-16T18:43:51.778Z,11.00
2022-11-16T18:46:19.716Z,11.00
2022-11-16T18:48:47.710Z,10.90
2022-11-16T18:51:16.915Z,10.80
2022-11-16T18:53:44.804Z,10.70
2022-11-16T18:56:13.993Z,10.70
2022-11-16T18:58:50.330Z,10.70
2022-11-16T19:01:22.452Z,10.70
2022-11-16T19:03:50.819Z,10.70
2022-11-16T19:06:18.736Z,10.70
2022-11-16T19:08:55.088Z,10.60
2022-11-16T19:11:24.302Z,10.60
2022-11-16T19:13:54.569Z,10.70
2022-11-16T19:16:25.352Z,10.50
2022-11-16T19:18:53.661Z,10.40
2022-11-16T19:21:22.722Z,10.40
2022-11-16T19:23:52.335Z,10.30
2022-11-16T19:26:21.859Z,10.30
2022-11-16T19:28:50.811Z,10.40
2022-11-16T19:31:20.602Z,10.40
2022-11-16T19:33:53.465Z,10.40
2022-11-16T19:36:21.360Z,10.30
2022-11-16T19:38:49.693Z,10.30
2022-11-16T19:41:20.123Z,10.30
2022-11-16T19:43:51.180Z,10.30
2022-11-16T19:46:21.305Z,10.30
2022-11-16T19:48:50.731Z,10.10
2022-11-16T19:51:20.376Z,10.10
2022-11-16T19:53:48.222Z,10.10
2022-11-16T19:56:17.912Z,10.20
2022-11-16T19:58:46.680Z,10.10
2022-11-16T20:01:16.923Z,10.10
2022-11-16T20:03:45.815Z,10.10
2022-11-16T20:06:16.953Z,10.20
2022-11-16T20:08:49.368Z,10.10
2022-11-16T20:11:21.209Z,10.10
2022-11-16T20:13:49.806Z,10.10
2022-11-16T20:16:20.647Z,9.90
2022-11-16T20:18:48.595Z,10.00
2022-11-16T20:21:22.718Z,10.10
2022-11-16T20:23:52.623Z,10.10
2022-11-16T20:26:21.895Z,10.10
2022-11-16T20:28:52.480Z,10.10
2022-11-16T20:31:22.664Z,10.10
2022-11-16T20:33:52.383Z,10.10
2022-11-16T20:36:24.195Z,10.10
2022-11-16T20:38:52.863Z,10.00
2022-11-16T20:41:23.190Z,10.10
2022-11-16T20:43:52.867Z,10.20
2022-11-16T20:46:22.707Z,10.20
2022-11-16T20:48:50.677Z,10.20
2022-11-16T20:51:20.319Z,10.30
2022-11-16T20:53:50.291Z,10.30
2022-11-16T20:56:19.929Z,10.40
2022-11-16T20:58:48.840Z,10.50
2022-11-16T21:01:19.134Z,10.40
2022-11-16T21:03:47.438Z,10.40
2022-11-16T21:06:15.737Z,10.40
2022-11-16T21:08:43.629Z,10.40
2022-11-16T21:11:14.423Z,10.50
2022-11-16T21:13:56.329Z,10.50
2022-11-16T21:16:24.061Z,10.50
2022-11-16T21:18:51.797Z,10.50
2022-11-16T21:21:19.625Z,10.40
2022-11-16T21:23:51.565Z,10.40
2022-11-16T21:26:22.922Z,10.40
2022-11-16T21:28:50.765Z,10.40
2022-11-16T21:31:20.209Z,10.40
2022-11-16T21:33:48.877Z,10.50
2022-11-16T21:36:18.448Z,10.50
2022-11-16T21:38:46.784Z,10.50
2022-11-16T21:41:16.068Z,10.60
2022-11-16T21:43:45.621Z,10.50
2022-11-16T21:46:14.921Z,10.50
2022-11-16T21:48:43.199Z,10.50
2022-11-16T21:51:12.632Z,10.50
2022-11-16T21:53:40.825Z,10.50
2022-11-16T21:56:12.437Z,10.60
2022-11-16T21:58:40.197Z,10.60
2022-11-16T22:01:10.692Z,10.60
2022-11-16T22:03:39.011Z,10.70
2022-11-16T22:06:22.853Z,10.80
2022-11-16T22:08:51.037Z,10.80
2022-11-16T22:11:21.690Z,10.80
2022-11-16T22:13:50.157Z,10.70
2022-11-16T22:16:22.958Z,10.70
2022-11-16T22:18:50.872Z,10.70
2022-11-16T22:21:18.785Z,10.70
2022-11-16T22:23:46.545Z,10.80
2022-11-16T22:26:14.801Z,10.90
2022-11-16T22:28:42.892Z,10.80
2022-11-16T22:31:12.631Z,10.90
2022-11-16T22:33:41.865Z,11.00
2022-11-16T22:36:10.646Z,11.00
2022-11-16T22:38:39.024Z,11.00
2022-11-16T22:41:07.015Z,11.00
2022-11-16T22:43:35.738Z,10.90
2022-11-16T22:46:05.823Z,10.90
2022-11-16T22:48:35.366Z,10.90
2022-11-16T22:51:06.495Z,10.80
2022-11-16T22:53:35.118Z,10.80
2022-11-16T22:56:05.726Z,10.80
2022-11-16T22:58:33.706Z,10.70
2022-11-16T23:01:01.542Z,10.60
2022-11-16T23:03:29.530Z,10.60
2022-11-16T23:05:57.325Z,10.50
2022-11-16T23:08:27.028Z,10.50
2022-11-16T23:11:16.461Z,10.60
2022-11-16T23:13:58.415Z,10.60
2022-11-16T23:16:26.116Z,10.50
2022-11-16T23:18:53.838Z,10.50
2022-11-16T23:21:35.635Z,10.50
2022-11-16T23:24:18.745Z,10.50
2022-11-16T23:27:00.461Z,10.30
2022-11-16T23:29:28.196Z,10.30
2022-11-16T23:31:55.984Z,10.30
2022-11-16T23:34:23.670Z,10.30
2022-11-16T23:36:51.402Z,10.30
2022-11-16T23:39:20.547Z,10.30
2022-11-16T23:42:02.209Z,10.40
2022-11-16T23:44:29.892Z,10.40
2022-11-16T23:46:57.540Z,10.40
2022-11-16T23:49:25.236Z,10.50
2022-11-16T23:51:52.939Z,10.60
2022-11-16T23:54:21.933Z,10.60
2022-11-16T23:56:49.680Z,10.60
2022-11-16T23:59:17.428Z,10.60
